N Encarnacion Canada — EA763 — position and weather

sailwx.info

Track history (hours):
 
Tides and Currents Weather Stations Pressure Air Temp Water Temp Dewpoint Dewpoint Depression Visibility Wind Speed Wind Dir Waves Ship Positions

N Encarnacion Canada

Last reported at 2018-Jun-12 01:48 UTC. Time now 2018-Jun-18 02:16 UTC.
Position N 39°02' E 003°36'.

Length 19 m; draft 2 m.

Type: Fishing. MMSI: 224148760.

Date/timePositionNaut miles runAvg speedWind from/ knotsBaromVisibWave heightAir tempDewpointWater temp
2018-Jun-12 01:48N 39°02' E 003°36'2 7.8
2018-Jun-12 01:30N 39°04' E 003°35'4 7.8
2018-Jun-12 01:00N 39°07' E 003°32'4 7.8
2018-Jun-12 00:30N 39°11' E 003°29'4 7.7
2018-Jun-12 00:00N 39°14' E 003°26'7 7.8
2018-Jun-11 23:09N 39°19' E 003°21'1 7.7
2018-Jun-11 23:00N 39°20' E 003°20'5 7.8
2018-Jun-11 22:22N 39°24' E 003°17'29 0.6
2018-Jun-09 20:20N 38°57' E 003°32'0 0.8
2018-Jun-09 19:59N 38°57' E 003°31'0 0.6
2018-Jun-09 19:30N 38°58' E 003°31'0 0.5
2018-Jun-09 18:59N 38°58' E 003°31'0 0.8
2018-Jun-09 18:29N 38°58' E 003°31'2 4.7
2018-Jun-09 18:00N 38°57' E 003°33'1 1.0
2018-Jun-09 17:29N 38°56' E 003°33'1 1.4
2018-Jun-09 17:01N 38°56' E 003°34'1 1.2
2018-Jun-09 16:30N 38°55' E 003°35'0 0.5
2018-Jun-09 16:00N 38°56' E 003°35'1 1.2
2018-Jun-09 15:00N 38°55' E 003°36'0 0.9
2018-Jun-09 14:30N 38°55' E 003°36'1 1.6
2018-Jun-09 13:37N 38°54' E 003°37'0 1.0
2018-Jun-09 13:30N 38°54' E 003°37'1 1.4
2018-Jun-09 13:00N 38°53' E 003°38'3 1.5
2018-Jun-09 10:47N 38°53' E 003°42'1 1.7
2018-Jun-09 10:30N 38°53' E 003°42'1 1.3
2018-Jun-09 10:00N 38°54' E 003°43'0 1.0
2018-Jun-09 09:30N 38°54' E 003°43'1 1.3
2018-Jun-09 08:53N 38°55' E 003°43'1 1.4
2018-Jun-09 08:30N 38°56' E 003°42'1 1.0
2018-Jun-09 07:41N 38°56' E 003°42'0 1.6
2018-Jun-09 07:29N 38°57' E 003°42'1 1.5
2018-Jun-09 07:00N 38°57' E 003°42'1 1.5
2018-Jun-09 06:30N 38°58' E 003°41'2 1.5
2018-Jun-09 05:12N 38°60' E 003°40'0 1.4
2018-Jun-09 04:56N 38°60' E 003°39'1 1.3
2018-Jun-09 04:25N 39°00' E 003°39'1 1.4
2018-Jun-09 04:01N 39°01' E 003°38'1 1.1
2018-Jun-09 03:31N 39°01' E 003°38'0 0.5
2018-Jun-09 03:00N 39°02' E 003°38'0 0.5
2018-Jun-09 02:18N 39°02' E 003°38'0 0.3
2018-Jun-09 01:56N 39°02' E 003°38'2 3.7
2018-Jun-09 01:30N 39°03' E 003°39'2 4.5
2018-Jun-09 01:00N 39°04' E 003°42'2 4.6
2018-Jun-09 00:30N 39°05' E 003°44'2 4.5
2018-Jun-09 00:00N 39°07' E 003°47'2 4.7
2018-Jun-08 23:30N 39°08' E 003°49'2 3.2
2018-Jun-08 22:57N 39°08' E 003°51'3 7.0
2018-Jun-08 22:28N 39°05' E 003°54'4 6.8
2018-Jun-08 21:50N 39°01' E 003°56'5 5.1
2018-Jun-08 20:47N 39°03' E 003°50'2 7.1
2018-Jun-08 20:31N 39°05' E 003°48'4 7.2
2018-Jun-08 20:00N 39°08' E 003°46'2 3.8
2018-Jun-08 19:28N 39°10' E 003°45'4 0.3
2018-Jun-08 04:00N 39°07' E 003°41'3 5.7
2018-Jun-08 03:29N 39°06' E 003°37'  
2018-Jun-05 02:23N 39°04' E 003°16'1 1.5
2018-Jun-05 01:59N 39°05' E 003°16'11 2.7
2018-Jun-04 21:48N 39°16' E 003°18'27 0.6
2018-Jun-03 02:43N 38°50' E 003°14'0 1.5
2018-Jun-03 02:30N 38°50' E 003°14'  
Track history (hours):
 
Tides and Currents Weather Stations Pressure Air Temp Water Temp Dewpoint Dewpoint Depression Visibility Wind Speed Wind Dir Waves Ship Positions

N Encarnacion Canada

Last reported at 2018-Jun-12 01:48 UTC. Time now 2018-Jun-18 02:16 UTC.
Position N 39°02' E 003°36'.

Length 19 m; draft 2 m.

Type: Fishing. MMSI: 224148760.

Date/timePositionNaut miles runAvg speedWind from/ knotsBaromVisibWave heightAir tempDewpointWater temp
2018-Jun-12 01:48N 39°02' E 003°36'2 7.8
2018-Jun-12 01:30N 39°04' E 003°35'4 7.8
2018-Jun-12 01:00N 39°07' E 003°32'4 7.8
2018-Jun-12 00:30N 39°11' E 003°29'4 7.7
2018-Jun-12 00:00N 39°14' E 003°26'7 7.8
2018-Jun-11 23:09N 39°19' E 003°21'1 7.7
2018-Jun-11 23:00N 39°20' E 003°20'5 7.8
2018-Jun-11 22:22N 39°24' E 003°17'29 0.6
2018-Jun-09 20:20N 38°57' E 003°32'0 0.8
2018-Jun-09 19:59N 38°57' E 003°31'0 0.6
2018-Jun-09 19:30N 38°58' E 003°31'0 0.5
2018-Jun-09 18:59N 38°58' E 003°31'0 0.8
2018-Jun-09 18:29N 38°58' E 003°31'2 4.7
2018-Jun-09 18:00N 38°57' E 003°33'1 1.0
2018-Jun-09 17:29N 38°56' E 003°33'1 1.4
2018-Jun-09 17:01N 38°56' E 003°34'1 1.2
2018-Jun-09 16:30N 38°55' E 003°35'0 0.5
2018-Jun-09 16:00N 38°56' E 003°35'1 1.2
2018-Jun-09 15:00N 38°55' E 003°36'0 0.9
2018-Jun-09 14:30N 38°55' E 003°36'1 1.6
2018-Jun-09 13:37N 38°54' E 003°37'0 1.0
2018-Jun-09 13:30N 38°54' E 003°37'1 1.4
2018-Jun-09 13:00N 38°53' E 003°38'3 1.5
2018-Jun-09 10:47N 38°53' E 003°42'1 1.7
2018-Jun-09 10:30N 38°53' E 003°42'1 1.3
2018-Jun-09 10:00N 38°54' E 003°43'0 1.0
2018-Jun-09 09:30N 38°54' E 003°43'1 1.3
2018-Jun-09 08:53N 38°55' E 003°43'1 1.4
2018-Jun-09 08:30N 38°56' E 003°42'1 1.0
2018-Jun-09 07:41N 38°56' E 003°42'0 1.6
2018-Jun-09 07:29N 38°57' E 003°42'1 1.5
2018-Jun-09 07:00N 38°57' E 003°42'1 1.5
2018-Jun-09 06:30N 38°58' E 003°41'2 1.5
2018-Jun-09 05:12N 38°60' E 003°40'0 1.4
2018-Jun-09 04:56N 38°60' E 003°39'1 1.3
2018-Jun-09 04:25N 39°00' E 003°39'1 1.4
2018-Jun-09 04:01N 39°01' E 003°38'1 1.1
2018-Jun-09 03:31N 39°01' E 003°38'0 0.5
2018-Jun-09 03:00N 39°02' E 003°38'0 0.5
2018-Jun-09 02:18N 39°02' E 003°38'0 0.3
2018-Jun-09 01:56N 39°02' E 003°38'2 3.7
2018-Jun-09 01:30N 39°03' E 003°39'2 4.5
2018-Jun-09 01:00N 39°04' E 003°42'2 4.6
2018-Jun-09 00:30N 39°05' E 003°44'2 4.5
2018-Jun-09 00:00N 39°07' E 003°47'2 4.7
2018-Jun-08 23:30N 39°08' E 003°49'2 3.2
2018-Jun-08 22:57N 39°08' E 003°51'3 7.0
2018-Jun-08 22:28N 39°05' E 003°54'4 6.8
2018-Jun-08 21:50N 39°01' E 003°56'5 5.1
2018-Jun-08 20:47N 39°03' E 003°50'2 7.1
2018-Jun-08 20:31N 39°05' E 003°48'4 7.2
2018-Jun-08 20:00N 39°08' E 003°46'2 3.8
2018-Jun-08 19:28N 39°10' E 003°45'4 0.3
2018-Jun-08 04:00N 39°07' E 003°41'3 5.7
2018-Jun-08 03:29N 39°06' E 003°37'  
2018-Jun-05 02:23N 39°04' E 003°16'1 1.5
2018-Jun-05 01:59N 39°05' E 003°16'11 2.7
2018-Jun-04 21:48N 39°16' E 003°18'27 0.6
2018-Jun-03 02:43N 38°50' E 003°14'0 1.5
2018-Jun-03 02:30N 38°50' E 003°14'  

Dump ship's entire track history